< < Back
Terminal Aerodrome Forecast


Current Version              Previous Versions:   1  2  3  4  5  6  7  8  9  

Terminal Aerodrome Forecast

199
FTUS42 KMLB 301100
TAFMCO
TAF
KMCO 301130Z 3012/3112 27004KT P6SM FEW060 SCT250
     FM301500 30005KT P6SM FEW025 SCT250
     FM302200 12007KT P6SM SCT060 SCT250
     FM310200 VRB03KT P6SM SCT250=



Latest METAR

680
SAUS70 KWBC 302300 RRB
MTRMCO
METAR KMCO 302253Z 34003KT 10SM BKN065 32/18 A2994 RMK AO2 SLP137
T03220178


USA.gov is the U.S. government's official web portal to all federal, state and local government web resources and services.